ROMMA est une association bénévole à but non lucratif. Votre soutien est indispensable : ADHERER à ROMMA ou FAIRE un DON

Crempigny - (74, Haute-Savoie)

Albanais-Montagne des Princes (500 m)   Longitude: 05° 54' 5" E   Latitude: 45° 57' 0" N Station partenaire n°10
 

Détail journalier du     <<     >>

Température Precipitation Humidité Pression Vent Dir Rafale Dir. rafale Ensol. 20 cm au dessus du sol
Heure (°C) (mm) (%) (hPa) (km/h) (km/h) (min) (°C)
01:00 3.809310132NNE8NNE03.3
02:00 3.4095101203NNE03.3
03:00 3.809510122NNE6NNE03.9
04:00 4.009410123N10NNE03.9
05:00 4.109310112N10NE03.9
06:00 4.109310115N15N03.9
07:00 4.109310112NE8NNE03.9
08:00 4.109310112NE8NNE03.9
09:00 3.709410122NNE6SE03.9
10:00 3.609510122SSE5SSE04.4
11:00 3.909510121SSE6NNE04.4
12:00 4.709410114NNE11NE05.0
13:00 5.009310105NNE18NE06.1
14:00 5.409210104ENE13NE06.1
15:00 5.209210093NE10E06.1
16:00 5.209210101NE11ENE05.6
17:00 4.809210102NE8NE04.4
18:00 4.409310102N10NNE03.9
19:00 4.409410103N10N04.4
20:00 4.409410103NO10NNO03.9
21:00 4.40.29510112N6ONO03.9
22:00 4.61.49610113NO6NO03.9
23:00 4.40.69610101NO6NNE03.9
minuit 4.40.29710102N5NNE03.9

Graphique du 21-11-2019

 

Serveur OMMA